Time;durP1;ratioP1;P1;durP2;ratioP2;P2;SDS_P1;SDS_P2;PMS_P1;PMS_P2;Temp;Humidity;BMP_temperature;BMP_pressure;BME280_temperature;BME280_humidity;BME280_pressure;Samples;Min_cycle;Max_cycle;Signal;HPM_P1;HPM_P2
2023/11/22 00:00:59;;;;;;;15.57;13.00;;;7.50;91.60;;;;;;805016;178;26438;-86
2023/11/22 00:06:22;;;;;;;19.33;13.43;;;7.60;92.10;;;;;;804285;175;26424;-85
2023/11/22 00:08:57;;;;;;;17.77;12.97;;;7.70;91.70;;;;;;805194;178;26970;-84
2023/11/22 00:31:20;;;;;;;20.80;15.03;;;7.50;91.30;;;;;;736886;174;26481;-87
2023/11/22 00:34:03;;;;;;;17.57;13.63;;;7.40;92.20;;;;;;787876;179;26457;-86
2023/11/22 00:36:35;;;;;;;20.87;14.50;;;7.40;92.10;;;;;;782490;180;26453;-86
2023/11/22 00:39:18;;;;;;;19.53;14.23;;;7.30;91.90;;;;;;784040;178;27019;-87
2023/11/22 00:47:35;;;;;;;22.07;15.30;;;7.40;92.60;;;;;;787534;179;26996;-87
2023/11/22 00:52:45;;;;;;;18.50;14.00;;;7.70;92.70;;;;;;788219;179;26538;-84
2023/11/22 00:58:16;;;;;;;18.43;13.70;;;7.70;92.10;;;;;;787552;182;26959;-86
2023/11/22 01:01:03;;;;;;;16.07;13.53;;;7.80;91.80;;;;;;786451;182;26505;-87
2023/11/22 01:04:11;;;;;;;;;;;;;;;;;;;;;
2023/11/22 01:06:40;;;;;;;17.97;13.23;;;7.80;91.40;;;;;;788774;179;26491;-84
2023/11/22 01:12:07;;;;;;;;;;;;;;;;;;;;;
2023/11/22 01:17:45;;;;;;;19.33;14.17;;;7.80;90.90;;;;;;777914;185;27309;-85
2023/11/22 01:20:23;;;;;;;19.50;14.50;;;7.80;91.20;;;;;;778111;184;26481;-85
2023/11/22 01:23:14;;;;;;;;;;;;;;;;;;;;;
2023/11/22 01:28:44;;;;;;;15.93;13.80;;;7.80;91.90;;;;;;786878;181;26559;-86
2023/11/22 01:31:27;;;;;;;17.23;13.57;;;7.80;91.30;;;;;;780317;180;26472;-85
2023/11/22 01:34:18;;;;;;;20.83;14.30;;;7.90;91.00;;;;;;780752;179;26449;-85
2023/11/22 01:39:41;;;;;;;18.57;14.37;;;7.80;91.20;;;;;;784479;181;26513;-84
2023/11/22 01:42:16;;;;;;;17.57;13.87;;;7.90;91.30;;;;;;782602;180;26971;-86
2023/11/22 01:45:01;;;;;;;18.60;14.03;;;8.10;90.90;;;;;;779625;179;26507;-86
2023/11/22 01:47:58;;;;;;;19.07;14.33;;;8.10;90.30;;;;;;779531;184;27126;-85
2023/11/22 01:50:29;;;;;;;19.43;14.47;;;7.90;90.50;;;;;;779086;184;27012;-85
2023/11/22 01:55:55;;;;;;;18.27;14.30;;;7.80;91.50;;;;;;775809;182;27093;-92
2023/11/22 01:58:38;;;;;;;18.80;14.47;;;7.70;91.10;;;;;;779627;182;26468;-86
2023/11/22 02:04:12;;;;;;;;;;;;;;;;;;;;;
2023/11/22 02:06:50;;;;;;;20.20;15.40;;;7.70;91.60;;;;;;767780;177;26602;-87
2023/11/22 02:09:24;;;;;;;18.23;14.03;;;7.80;91.90;;;;;;754176;187;26516;-86
2023/11/22 02:12:29;;;;;;;20.70;15.17;;;7.80;90.90;;;;;;737571;190;27074;-85
2023/11/22 02:15:06;;;;;;;18.47;13.90;;;7.90;91.30;;;;;;737980;192;26567;-86
2023/11/22 02:20:20;;;;;;;18.03;13.97;;;7.80;90.80;;;;;;749714;187;26483;-85
2023/11/22 02:23:05;;;;;;;19.20;14.60;;;7.80;90.50;;;;;;767167;187;26495;-86
2023/11/22 02:25:41;;;;;;;21.80;14.83;;;7.90;90.50;;;;;;762570;187;26581;-84
2023/11/22 02:28:14;;;;;;;20.13;13.73;;;7.90;90.50;;;;;;766892;187;27205;-89
2023/11/22 02:30:43;;;;;;;17.57;12.97;;;7.90;90.20;;;;;;751743;188;26505;-86
2023/11/22 02:33:20;;;;;;;16.87;13.80;;;7.90;90.00;;;;;;744207;193;26528;-89
2023/11/22 02:35:58;;;;;;;16.10;12.80;;;7.80;90.20;;;;;;746479;191;26539;-87
2023/11/22 02:41:11;;;;;;;18.37;12.30;;;7.80;90.20;;;;;;756882;189;26597;-87
2023/11/22 02:43:46;;;;;;;14.13;11.87;;;7.90;90.20;;;;;;745445;192;26598;-86
2023/11/22 02:46:26;;;;;;;;;;;;;;;;;;;;;
2023/11/22 02:48:59;;;;;;;15.93;13.03;;;7.80;90.00;;;;;;751701;187;27055;-86
2023/11/22 02:51:36;;;;;;;18.03;14.50;;;7.80;90.60;;;;;;745152;192;26504;-86
2023/11/22 02:57:04;;;;;;;17.10;13.83;;;7.80;90.00;;;;;;746673;175;27005;-85
2023/11/22 02:59:47;;;;;;;15.80;13.03;;;7.80;90.30;;;;;;802720;177;26455;-85
2023/11/22 03:02:18;;;;;;;17.37;12.37;;;7.80;90.00;;;;;;800215;177;26461;-87
2023/11/22 03:04:48;;;;;;;16.63;13.27;;;7.80;89.70;;;;;;803459;177;27072;-86
2023/11/22 03:07:20;;;;;;;16.67;12.83;;;7.80;90.20;;;;;;801984;174;27019;-87
2023/11/22 03:09:58;;;;;;;14.60;12.97;;;7.90;89.90;;;;;;831353;172;26379;-87
2023/11/22 03:12:33;;;;;;;16.27;11.30;;;7.80;90.10;;;;;;831083;172;26415;-87
2023/11/22 03:15:25;;;;;;;15.27;13.30;;;7.80;89.70;;;;;;811136;172;27144;-86
2023/11/22 03:17:59;;;;;;;16.93;13.73;;;7.80;90.60;;;;;;768751;185;26529;-86
2023/11/22 03:23:12;;;;;;;15.73;12.37;;;7.70;90.00;;;;;;767326;183;26488;-85
2023/11/22 03:25:43;;;;;;;15.60;12.73;;;7.60;90.30;;;;;;756365;187;27131;-86
2023/11/22 03:28:17;;;;;;;15.90;12.63;;;7.70;90.00;;;;;;762611;187;26577;-84
2023/11/22 03:30:54;;;;;;;16.80;12.47;;;7.70;90.40;;;;;;781629;180;26456;-88
2023/11/22 03:33:28;;;;;;;17.13;12.13;;;7.70;89.80;;;;;;776557;183;27059;-86
2023/11/22 03:36:13;;;;;;;14.23;11.67;;;7.80;89.90;;;;;;774590;180;26469;-86
2023/11/22 03:38:52;;;;;;;18.07;12.60;;;7.80;89.20;;;;;;775759;181;27023;-86
2023/11/22 03:41:23;;;;;;;15.90;11.67;;;7.70;90.40;;;;;;771865;182;26496;-86
2023/11/22 03:44:00;;;;;;;18.10;13.20;;;7.40;90.00;;;;;;771848;182;27016;-85
2023/11/22 03:46:31;;;;;;;15.83;13.07;;;7.20;90.90;;;;;;767999;182;27036;-86
2023/11/22 03:49:02;;;;;;;18.50;14.93;;;7.10;90.70;;;;;;774980;182;26463;-85
2023/11/22 03:51:35;;;;;;;18.47;13.57;;;7.10;91.40;;;;;;773318;182;26460;-85
2023/11/22 03:57:15;;;;;;;17.20;13.67;;;6.80;91.40;;;;;;725086;180;26716;-85
2023/11/22 03:59:49;;;;;;;18.47;14.63;;;6.60;91.70;;;;;;750931;188;27099;-86
2023/11/22 04:02:29;;;;;;;25.70;16.37;;;6.50;92.10;;;;;;751570;188;26584;-85
2023/11/22 04:18:57;;;;;;;28.20;18.30;;;6.10;93.60;;;;;;724490;177;27056;-87
2023/11/22 04:21:24;;;;;;;27.10;17.77;;;6.00;93.70;;;;;;786757;177;26565;-90
2023/11/22 04:23:51;;;;;;;24.03;17.73;;;6.20;94.10;;;;;;790505;181;28067;-89
2023/11/22 04:26:20;;;;;;;24.17;16.97;;;6.10;93.40;;;;;;783906;181;26464;-89
2023/11/22 04:28:44;;;;;;;24.73;17.40;;;6.20;93.70;;;;;;786497;178;26476;-91
2023/11/22 04:31:11;;;;;;;26.73;18.10;;;6.00;93.30;;;;;;791311;175;26480;-90
2023/11/22 04:33:37;;;;;;;24.80;17.00;;;6.00;93.80;;;;;;789669;175;26491;-88
2023/11/22 04:36:04;;;;;;;30.10;18.80;;;5.70;93.10;;;;;;786355;181;26452;-89
2023/11/22 04:38:30;;;;;;;23.03;17.33;;;6.20;93.70;;;;;;782213;180;26543;-89
2023/11/22 04:40:57;;;;;;;28.47;19.03;;;6.00;93.20;;;;;;780741;181;27022;-89
2023/11/22 04:43:24;;;;;;;25.10;18.60;;;6.00;93.40;;;;;;782325;181;26478;-88
2023/11/22 04:45:50;;;;;;;28.70;20.03;;;5.90;93.60;;;;;;783663;181;26796;-89
2023/11/22 04:48:17;;;;;;;27.97;19.43;;;5.70;93.60;;;;;;787993;181;26451;-89
2023/11/22 04:50:43;;;;;;;27.17;19.00;;;5.70;94.00;;;;;;783965;181;27106;-90
2023/11/22 04:53:11;;;;;;;27.33;19.77;;;5.70;93.90;;;;;;785234;181;26470;-89
2023/11/22 04:55:38;;;;;;;30.27;20.00;;;5.50;93.60;;;;;;784814;181;26466;-89
2023/11/22 04:58:04;;;;;;;25.37;19.33;;;5.50;94.00;;;;;;786934;180;26464;-89
2023/11/22 05:00:31;;;;;;;33.80;22.07;;;5.50;94.10;;;;;;792098;177;26489;-89
2023/11/22 05:02:57;;;;;;;31.47;20.57;;;5.40;94.20;;;;;;792166;181;26482;-89
2023/11/22 05:05:24;;;;;;;31.93;20.87;;;5.20;94.10;;;;;;787720;181;26512;-89
2023/11/22 05:07:50;;;;;;;33.40;22.30;;;5.40;95.00;;;;;;788883;181;26473;-89
2023/11/22 05:10:17;;;;;;;39.10;23.83;;;5.30;94.90;;;;;;787037;181;26466;-88
2023/11/22 05:12:44;;;;;;;40.93;24.57;;;5.20;94.90;;;;;;788240;181;26460;-89
2023/11/22 05:15:11;;;;;;;38.83;23.80;;;5.30;95.20;;;;;;785337;181;26511;-89
2023/11/22 05:17:37;;;;;;;31.23;20.83;;;5.20;94.90;;;;;;781016;181;26488;-88
2023/11/22 05:20:05;;;;;;;33.93;22.93;;;5.00;94.90;;;;;;793421;181;26476;-88
2023/11/22 05:22:31;;;;;;;42.33;24.83;;;4.90;95.00;;;;;;783252;180;26447;-88
2023/11/22 05:24:57;;;;;;;74.03;29.33;;;5.10;95.70;;;;;;789001;176;26439;-88
2023/11/22 05:27:24;;;;;;;43.40;25.00;;;5.10;95.70;;;;;;787121;180;26457;-88
2023/11/22 05:29:50;;;;;;;34.23;23.60;;;5.60;95.80;;;;;;787621;175;26473;-88
2023/11/22 05:32:17;;;;;;;29.10;20.37;;;5.80;94.80;;;;;;791203;175;26473;-88
2023/11/22 05:34:44;;;;;;;24.97;18.80;;;6.10;93.70;;;;;;787316;175;26484;-88
2023/11/22 05:37:11;;;;;;;32.27;20.20;;;6.20;92.80;;;;;;786462;175;26647;-88
2023/11/22 05:39:37;;;;;;;20.77;16.50;;;6.20;93.30;;;;;;788544;181;27011;-89
2023/11/22 05:42:03;;;;;;;27.30;18.47;;;6.10;92.50;;;;;;783733;178;26488;-88
2023/11/22 05:44:30;;;;;;;19.97;15.70;;;6.10;92.80;;;;;;781106;180;26493;-88
2023/11/22 05:46:57;;;;;;;25.47;16.77;;;6.20;92.10;;;;;;784550;181;26525;-88
2023/11/22 05:49:23;;;;;;;19.47;14.87;;;6.00;92.30;;;;;;791096;180;26993;-88
2023/11/22 05:51:50;;;;;;;20.17;14.83;;;6.10;92.10;;;;;;784520;180;26472;-88
2023/11/22 05:54:16;;;;;;;19.30;14.17;;;5.90;92.50;;;;;;787346;181;26475;-89
2023/11/22 05:56:43;;;;;;;20.83;15.07;;;6.10;91.60;;;;;;789568;181;26475;-88
2023/11/22 05:59:10;;;;;;;18.80;14.17;;;6.00;91.50;;;;;;791661;181;26453;-87
2023/11/22 06:01:36;;;;;;;16.67;12.47;;;6.20;91.40;;;;;;790660;178;27065;-88
2023/11/22 06:04:03;;;;;;;20.53;14.03;;;6.00;91.20;;;;;;788628;181;26471;-88
2023/11/22 06:06:29;;;;;;;17.97;13.53;;;5.90;91.80;;;;;;789958;180;27151;-88
2023/11/22 06:09:07;;;;;;;14.47;11.77;;;5.90;91.40;;;;;;788272;178;26480;-88
2023/11/22 06:25:23;;;;;;;16.23;12.47;;;5.90;90.50;;;;;;732211;177;26465;-89
2023/11/22 06:27:50;;;;;;;16.97;12.80;;;5.80;91.40;;;;;;777426;185;26487;-89
2023/11/22 06:30:17;;;;;;;15.93;12.67;;;5.60;90.90;;;;;;767575;184;27072;-89
2023/11/22 06:32:44;;;;;;;21.67;13.87;;;5.50;91.90;;;;;;769222;184;27068;-89
2023/11/22 06:35:14;;;;;;;17.50;13.30;;;5.30;91.70;;;;;;769190;184;26492;-89
2023/11/22 06:40:37;;;;;;;17.07;12.03;;;5.30;92.10;;;;;;798249;178;26459;-84
2023/11/22 06:43:16;;;;;;;22.57;13.23;;;5.30;91.80;;;;;;800330;179;26981;-85
2023/11/22 06:45:49;;;;;;;18.37;12.90;;;5.20;92.60;;;;;;798162;178;26481;-85
2023/11/22 06:48:18;;;;;;;24.90;15.43;;;5.20;92.40;;;;;;802430;173;26541;-85
2023/11/22 06:50:48;;;;;;;18.80;13.00;;;5.20;93.00;;;;;;802705;178;26521;-85
2023/11/22 06:53:19;;;;;;;14.87;11.87;;;5.10;92.60;;;;;;805975;176;26461;-85
2023/11/22 06:56:06;;;;;;;20.20;14.27;;;4.80;91.90;;;;;;806485;177;26980;-87
2023/11/22 06:58:39;;;;;;;17.47;13.67;;;4.80;93.00;;;;;;803228;176;26465;-86
2023/11/22 07:01:16;;;;;;;14.50;11.30;;;4.80;92.70;;;;;;772594;185;27062;-86
2023/11/22 07:03:47;;;;;;;15.23;11.43;;;4.70;92.90;;;;;;804132;177;26372;-85
2023/11/22 07:06:25;;;;;;;15.43;11.63;;;4.60;93.00;;;;;;804311;178;26503;-85
2023/11/22 07:08:54;;;;;;;17.30;13.50;;;4.80;93.60;;;;;;804292;176;26377;-86
2023/11/22 07:11:36;;;;;;;;;;;;;;;;;;;;;
2023/11/22 07:14:06;;;;;;;17.37;11.93;;;4.60;93.50;;;;;;803416;177;26364;-85
2023/11/22 07:16:43;;;;;;;16.10;12.20;;;4.70;92.90;;;;;;800842;179;26927;-85
2023/11/22 07:19:24;;;;;;;17.90;13.17;;;4.60;92.50;;;;;;800339;176;27001;-88
2023/11/22 07:22:15;;;;;;;18.40;13.30;;;4.70;93.10;;;;;;803566;177;26496;-85
2023/11/22 07:25:02;;;;;;;19.30;13.10;;;4.60;92.50;;;;;;801897;178;27008;-86
2023/11/22 07:27:35;;;;;;;19.10;12.63;;;4.30;92.10;;;;;;802458;177;26365;-85
2023/11/22 07:30:13;;;;;;;16.77;12.77;;;4.40;93.30;;;;;;806806;175;26998;-85
2023/11/22 07:32:59;;;;;;;14.23;11.27;;;4.70;93.20;;;;;;808562;177;26355;-85
2023/11/22 07:35:32;;;;;;;21.33;15.30;;;4.50;93.20;;;;;;803559;176;26424;-85
2023/11/22 07:38:19;;;;;;;;;;;;;;;;;;;;;
2023/11/22 07:43:24;;;;;;;15.77;11.07;;;4.70;93.30;;;;;;809233;176;26343;-85
2023/11/22 07:46:01;;;;;;;19.23;14.67;;;4.60;92.80;;;;;;809478;176;26421;-84
2023/11/22 07:48:36;;;;;;;13.77;10.53;;;4.80;93.40;;;;;;809393;177;26375;-85
2023/11/22 07:51:17;;;;;;;13.80;10.27;;;5.00;91.70;;;;;;807525;177;26612;-85
2023/11/22 07:53:46;;;;;;;17.40;13.20;;;4.80;92.10;;;;;;805689;178;26960;-85
2023/11/22 07:56:17;;;;;;;15.40;11.17;;;4.90;92.10;;;;;;805589;178;26976;-85
2023/11/22 07:58:54;;;;;;;14.17;10.83;;;4.90;92.10;;;;;;805350;177;26396;-85
2023/11/22 08:01:25;;;;;;;15.07;11.33;;;4.70;92.20;;;;;;802931;177;28006;-86
2023/11/22 08:06:49;;;;;;;17.03;11.10;;;4.80;92.70;;;;;;804203;178;27023;-86
2023/11/22 08:09:20;;;;;;;12.47;10.17;;;4.80;92.00;;;;;;804083;177;26613;-86
2023/11/22 08:11:52;;;;;;;13.47;9.90;;;4.80;91.90;;;;;;801301;174;26512;-85
2023/11/22 08:14:27;;;;;;;14.87;11.13;;;5.00;91.60;;;;;;807801;176;26999;-85
2023/11/22 08:16:57;;;;;;;18.63;10.33;;;5.30;91.50;;;;;;808451;177;26386;-86
2023/11/22 08:19:29;;;;;;;12.47;9.40;;;5.40;91.30;;;;;;803850;176;26489;-85
2023/11/22 08:22:03;;;;;;;12.20;9.43;;;5.40;90.60;;;;;;804511;174;26511;-84
2023/11/22 08:24:35;;;;;;;12.10;8.63;;;5.50;90.10;;;;;;803955;176;26429;-85
2023/11/22 08:27:07;;;;;;;13.27;10.07;;;5.30;90.20;;;;;;799414;176;26463;-85
2023/11/22 08:29:38;;;;;;;11.63;9.50;;;5.20;90.80;;;;;;803639;178;26379;-85
2023/11/22 08:32:12;;;;;;;11.97;7.83;;;5.10;91.20;;;;;;803310;175;26441;-85
2023/11/22 08:34:45;;;;;;;10.67;7.10;;;5.30;90.60;;;;;;804700;176;26926;-88
2023/11/22 08:37:29;;;;;;;11.90;8.43;;;5.80;89.20;;;;;;808760;176;26928;-85
2023/11/22 08:39:57;;;;;;;9.30;7.27;;;5.80;88.30;;;;;;812341;176;26371;-85
2023/11/22 08:42:33;;;;;;;8.87;7.13;;;5.90;88.10;;;;;;810255;176;26442;-85
2023/11/22 08:45:18;;;;;;;9.97;6.03;;;5.90;87.20;;;;;;808946;177;28020;-85
2023/11/22 08:47:46;;;;;;;6.07;5.40;;;5.80;87.90;;;;;;805220;177;26437;-87
2023/11/22 08:50:15;;;;;;;9.00;7.33;;;5.60;88.50;;;;;;803919;176;26426;-85
2023/11/22 08:52:53;;;;;;;9.80;6.90;;;5.50;89.90;;;;;;802531;175;26439;-86
2023/11/22 08:55:26;;;;;;;9.37;6.90;;;5.50;90.10;;;;;;801775;174;26365;-85
2023/11/22 08:57:58;;;;;;;10.93;7.90;;;5.40;88.30;;;;;;801395;179;26368;-86
2023/11/22 09:00:41;;;;;;;7.63;6.43;;;5.70;88.90;;;;;;800522;176;26368;-85
2023/11/22 09:03:29;;;;;;;8.93;6.70;;;5.80;84.20;;;;;;802993;176;26385;-87
2023/11/22 09:06:15;;;;;;;8.00;6.17;;;5.90;80.10;;;;;;807226;176;26358;-85
2023/11/22 09:08:45;;;;;;;10.37;7.50;;;6.10;81.30;;;;;;811393;173;26511;-84
2023/11/22 09:11:19;;;;;;;12.07;7.90;;;5.90;83.50;;;;;;805663;174;26369;-85
2023/11/22 09:14:02;;;;;;;;;;;;;;;;;;;;;
2023/11/22 09:16:50;;;;;;;7.87;6.17;;;6.10;81.60;;;;;;802831;177;26916;-84
2023/11/22 09:19:16;;;;;;;13.17;9.20;;;6.20;79.80;;;;;;801097;177;26442;-85
2023/11/22 09:21:45;;;;;;;12.53;9.47;;;6.10;83.50;;;;;;804257;177;26434;-85
2023/11/22 09:24:17;;;;;;;12.07;8.77;;;6.00;83.50;;;;;;806349;174;26920;-83
2023/11/22 09:27:00;;;;;;;11.47;7.60;;;6.10;84.30;;;;;;805102;176;27000;-87
2023/11/22 09:29:30;;;;;;;13.23;8.70;;;6.00;84.20;;;;;;808833;176;26461;-85
2023/11/22 09:32:10;;;;;;;9.80;8.00;;;6.00;85.00;;;;;;802830;177;26450;-85
2023/11/22 09:34:44;;;;;;;7.03;5.97;;;6.30;84.10;;;;;;788092;178;26429;-84
2023/11/22 09:37:25;;;;;;;6.67;5.47;;;6.80;78.80;;;;;;802182;178;26450;-89
2023/11/22 09:40:09;;;;;;;6.40;5.30;;;7.40;80.80;;;;;;803621;178;26376;-85
2023/11/22 09:43:02;;;;;;;5.60;4.77;;;8.10;76.90;;;;;;802349;177;26985;-86
2023/11/22 09:45:39;;;;;;;5.70;3.90;;;8.70;68.40;;;;;;805377;177;26382;-87
2023/11/22 09:48:27;;;;;;;7.17;4.60;;;9.20;66.20;;;;;;802990;176;26388;-86
2023/11/22 09:51:17;;;;;;;3.90;3.40;;;9.00;63.20;;;;;;808500;175;26381;-86
2023/11/22 09:54:04;;;;;;;5.77;3.30;;;8.70;59.50;;;;;;815318;173;26434;-86
2023/11/22 09:56:32;;;;;;;3.60;3.00;;;8.70;61.10;;;;;;806760;176;26580;-86
2023/11/22 09:59:23;;;;;;;3.70;3.10;;;9.00;62.20;;;;;;805438;178;26458;-87
2023/11/22 10:04:52;;;;;;;4.57;3.80;;;9.40;62.40;;;;;;791352;178;26462;-86
2023/11/22 10:07:35;;;;;;;3.73;3.30;;;9.60;59.10;;;;;;804884;174;26478;-86
2023/11/22 10:10:26;;;;;;;3.83;3.43;;;9.80;58.10;;;;;;803624;178;26373;-86
2023/11/22 10:12:53;;;;;;;6.27;3.10;;;9.40;59.90;;;;;;800925;178;26364;-87
2023/11/22 10:15:27;;;;;;;3.90;3.17;;;9.10;57.70;;;;;;801786;179;26374;-87
2023/11/22 10:18:04;;;;;;;3.40;2.90;;;9.10;63.00;;;;;;801700;178;26415;-87
2023/11/22 10:23:15;;;;;;;3.50;2.73;;;9.20;58.70;;;;;;807235;176;26594;-87
2023/11/22 10:26:03;;;;;;;3.20;2.90;;;9.40;58.70;;;;;;804659;177;26436;-85
2023/11/22 10:28:32;;;;;;;4.53;3.00;;;9.50;57.40;;;;;;804172;178;26462;-87
2023/11/22 10:31:05;;;;;;;3.40;3.00;;;9.40;57.80;;;;;;803458;176;26433;-87
2023/11/22 10:36:33;;;;;;;2.97;2.67;;;9.20;57.50;;;;;;802724;179;26471;-87
2023/11/22 10:41:51;;;;;;;3.80;3.07;;;10.20;59.60;;;;;;711954;180;27056;-89
2023/11/22 10:44:23;;;;;;;2.97;2.67;;;10.10;57.20;;;;;;770933;185;26484;-88
2023/11/22 10:46:52;;;;;;;3.10;2.90;;;10.40;55.80;;;;;;770717;183;27061;-87
2023/11/22 10:49:48;;;;;;;3.23;2.90;;;10.60;58.30;;;;;;767419;186;26552;-88
2023/11/22 10:52:29;;;;;;;5.73;3.53;;;10.40;55.50;;;;;;774196;181;27103;-86
2023/11/22 10:57:53;;;;;;;4.27;3.10;;;10.60;54.10;;;;;;722707;181;26511;-89
2023/11/22 11:00:22;;;;;;;3.73;2.93;;;10.70;51.00;;;;;;775327;184;26525;-90
2023/11/22 11:02:51;;;;;;;4.53;2.60;;;10.80;52.70;;;;;;775589;184;26494;-90
2023/11/22 11:08:19;;;;;;;5.30;2.27;;;10.50;49.10;;;;;;774325;184;26477;-89
2023/11/22 11:21:51;;;;;;;7.33;4.07;;;11.00;53.20;;;;;;743234;177;26467;-88
2023/11/22 11:24:19;;;;;;;4.20;3.03;;;11.10;58.00;;;;;;800925;177;28080;-88
2023/11/22 11:26:54;;;;;;;4.27;2.93;;;10.70;54.30;;;;;;800629;175;26445;-88
2023/11/22 11:29:43;;;;;;;3.97;2.83;;;10.80;48.60;;;;;;803094;178;26431;-89
2023/11/22 11:32:11;;;;;;;3.93;3.53;;;10.40;53.50;;;;;;800108;176;26434;-88
2023/11/22 11:34:51;;;;;;;4.10;3.00;;;9.90;51.60;;;;;;796192;177;26467;-87
2023/11/22 11:57:29;;;;;;;3.10;2.77;;;11.70;52.00;;;;;;800255;174;26622;-86
2023/11/22 12:00:04;;;;;;;4.03;2.70;;;11.00;50.10;;;;;;800748;177;26418;-86
2023/11/22 12:02:38;;;;;;;3.63;2.60;;;11.30;54.40;;;;;;793730;178;26443;-87
2023/11/22 12:05:16;;;;;;;3.40;2.90;;;12.00;50.70;;;;;;792987;177;26507;-86
2023/11/22 12:07:56;;;;;;;3.73;2.90;;;12.70;47.00;;;;;;798933;177;26952;-85
2023/11/22 12:10:23;;;;;;;6.57;3.27;;;11.90;45.10;;;;;;779691;183;26476;-89
2023/11/22 12:12:48;;;;;;;4.53;3.17;;;12.50;49.00;;;;;;781967;182;26485;-89
2023/11/22 12:15:15;;;;;;;3.50;3.00;;;12.70;46.50;;;;;;782773;183;26478;-89
2023/11/22 12:17:41;;;;;;;5.17;3.33;;;13.00;47.00;;;;;;782288;183;26547;-89
2023/11/22 12:20:11;;;;;;;7.10;4.80;;;12.80;45.90;;;;;;773583;184;26492;-88
2023/11/22 12:22:37;;;;;;;5.30;3.90;;;13.30;49.10;;;;;;759551;186;26576;-89
2023/11/22 12:25:04;;;;;;;8.43;4.27;;;13.00;47.40;;;;;;779394;185;27002;-89
2023/11/22 12:27:31;;;;;;;7.03;3.27;;;11.80;50.60;;;;;;777126;185;26478;-88
2023/11/22 12:29:58;;;;;;;6.70;4.70;;;11.00;50.80;;;;;;774155;185;26491;-89
2023/11/22 12:32:25;;;;;;;5.80;4.03;;;11.30;52.30;;;;;;768035;185;26476;-89
2023/11/22 12:34:53;;;;;;;4.83;3.13;;;11.00;50.50;;;;;;764876;185;26489;-89
2023/11/22 12:37:21;;;;;;;4.00;3.60;;;10.90;54.70;;;;;;776327;185;26556;-87
2023/11/22 12:39:48;;;;;;;3.00;2.70;;;11.30;53.70;;;;;;774272;184;26508;-87
2023/11/22 12:42:17;;;;;;;4.03;2.37;;;11.60;51.00;;;;;;776274;184;27024;-87
2023/11/22 12:44:49;;;;;;;6.23;3.50;;;11.40;48.50;;;;;;766098;184;27095;-87
2023/11/22 12:47:16;;;;;;;3.00;2.60;;;11.90;49.30;;;;;;766061;183;26512;-87
2023/11/22 12:49:49;;;;;;;3.00;2.40;;;13.10;47.80;;;;;;767622;184;26490;-89
2023/11/22 12:52:15;;;;;;;3.07;2.60;;;12.50;48.20;;;;;;774129;183;27035;-89
2023/11/22 12:54:42;;;;;;;2.73;2.43;;;13.20;47.70;;;;;;773702;184;26484;-88
2023/11/22 12:57:15;;;;;;;4.20;2.60;;;13.90;44.40;;;;;;779255;184;26484;-89
2023/11/22 12:59:42;;;;;;;6.43;3.10;;;14.50;41.90;;;;;;777951;184;26525;-89
2023/11/22 13:02:09;;;;;;;3.50;2.67;;;15.20;40.60;;;;;;774123;184;26480;-88
2023/11/22 13:04:35;;;;;;;3.27;2.87;;;14.80;39.10;;;;;;766560;181;26488;-88
2023/11/22 13:07:02;;;;;;;5.67;4.13;;;16.00;41.70;;;;;;765864;185;26530;-86
2023/11/22 13:09:30;;;;;;;3.57;3.23;;;16.70;40.70;;;;;;765788;185;26515;-86
2023/11/22 13:11:55;;;;;;;4.87;3.40;;;16.90;40.20;;;;;;773976;184;26493;-86
2023/11/22 13:14:23;;;;;;;11.20;3.50;;;15.80;38.10;;;;;;777200;184;26517;-88
2023/11/22 13:16:48;;;;;;;4.90;3.20;;;15.50;36.60;;;;;;780048;183;26524;-88
2023/11/22 13:19:15;;;;;;;4.97;3.00;;;16.30;41.10;;;;;;781812;182;26508;-88
2023/11/22 13:21:41;;;;;;;4.00;3.10;;;15.30;38.80;;;;;;776901;183;26475;-88
2023/11/22 13:24:09;;;;;;;8.47;5.80;;;14.30;38.60;;;;;;778535;181;26507;-88
2023/11/22 13:26:34;;;;;;;3.40;3.10;;;14.50;41.50;;;;;;773669;181;26505;-87
2023/11/22 13:29:01;;;;;;;19.57;14.33;;;15.20;41.00;;;;;;770112;184;26492;-87
2023/11/22 13:31:27;;;;;;;33.00;21.90;;;15.20;39.10;;;;;;771910;184;26490;-87
2023/11/22 13:33:54;;;;;;;18.90;12.07;;;16.10;37.80;;;;;;772294;184;26476;-87
2023/11/22 13:36:21;;;;;;;12.70;9.40;;;17.00;35.90;;;;;;779254;181;26496;-87
2023/11/22 13:38:47;;;;;;;53.87;37.00;;;15.00;37.70;;;;;;771213;184;26518;-86
2023/11/22 13:41:14;;;;;;;19.30;13.30;;;14.50;38.00;;;;;;775647;184;27056;-86
2023/11/22 13:43:40;;;;;;;115.47;70.43;;;14.40;39.40;;;;;;773400;182;26486;-86
2023/11/22 13:46:10;;;;;;;12.63;9.03;;;13.90;43.00;;;;;;773383;184;27139;-88
2023/11/22 13:48:34;;;;;;;8.07;5.77;;;13.20;40.20;;;;;;775882;181;26502;-87
2023/11/22 13:51:00;;;;;;;6.30;4.90;;;13.40;43.00;;;;;;776118;181;27061;-88
2023/11/22 13:53:32;;;;;;;5.83;4.93;;;13.50;44.20;;;;;;770749;184;26476;-87
2023/11/22 13:55:55;;;;;;;5.10;4.57;;;14.00;44.20;;;;;;776573;184;26520;-86
2023/11/22 13:58:20;;;;;;;18.97;12.77;;;12.20;42.10;;;;;;771131;183;26523;-88
2023/11/22 14:00:49;;;;;;;11.53;7.70;;;12.50;48.00;;;;;;768384;184;26509;-88
2023/11/22 14:03:21;;;;;;;14.70;8.63;;;12.00;44.90;;;;;;771122;183;26477;-86
2023/11/22 14:05:57;;;;;;;6.80;5.27;;;12.00;49.90;;;;;;773284;184;27082;-85
2023/11/22 14:09:00;;;;;;;7.07;5.97;;;11.70;53.20;;;;;;786118;170;26446;-88
2023/11/22 14:36:25;;;;;;;5.73;4.10;;;9.20;55.50;;;;;;798411;179;26954;-86
2023/11/22 14:38:56;;;;;;;6.90;3.97;;;8.90;53.60;;;;;;795207;178;26488;-85
2023/11/22 14:58:18;;;;;;;15.97;10.50;;;7.90;63.20;;;;;;753122;190;26521;-88
2023/11/22 15:12:03;;;;;;;13.00;8.03;;;7.50;68.80;;;;;;728893;176;26493;-85
2023/11/22 15:17:26;;;;;;;13.77;8.70;;;7.30;69.00;;;;;;772498;186;27022;-87
2023/11/22 15:23:20;;;;;;;;;;;;;;;;;;;;;
2023/11/22 15:42:24;;;;;;;13.23;9.00;;;7.20;69.20;;;;;;740675;175;27017;-88
2023/11/22 15:44:51;;;;;;;104.73;48.30;;;7.10;68.20;;;;;;792762;179;26443;-86
2023/11/22 15:47:17;;;;;;;155.03;72.10;;;7.00;71.70;;;;;;791878;176;26460;-86
2023/11/22 15:49:43;;;;;;;75.23;37.83;;;6.90;69.20;;;;;;785763;180;26483;-86
2023/11/22 15:52:10;;;;;;;173.97;82.67;;;6.90;71.00;;;;;;809923;176;26449;-86
2023/11/22 15:54:37;;;;;;;27.63;15.97;;;6.90;70.30;;;;;;810669;173;26432;-87
2023/11/22 15:57:03;;;;;;;53.97;28.90;;;6.90;70.60;;;;;;814355;171;26414;-87
2023/11/22 15:59:30;;;;;;;94.93;43.17;;;6.80;69.50;;;;;;810817;176;27006;-87
2023/11/22 16:01:57;;;;;;;169.73;72.00;;;6.80;70.90;;;;;;810321;173;26426;-87
2023/11/22 16:04:24;;;;;;;104.33;46.97;;;6.80;70.80;;;;;;805705;176;26396;-90
2023/11/22 16:15:20;;;;;;;84.83;45.87;;;6.70;67.30;;;;;;770211;186;27044;-83
2023/11/22 16:18:13;;;;;;;;;;;;;;;;;;;;;
2023/11/22 16:20:40;;;;;;;93.23;41.67;;;6.70;67.20;;;;;;770814;184;26627;-85
2023/11/22 16:23:07;;;;;;;87.97;43.70;;;6.70;65.30;;;;;;768812;186;26496;-88
2023/11/22 16:25:41;;;;;;;49.67;27.23;;;6.80;64.10;;;;;;779140;177;27029;-84
2023/11/22 16:28:31;;;;;;;20.90;13.57;;;6.80;68.30;;;;;;776709;185;26985;-84
2023/11/22 16:31:11;;;;;;;102.53;47.57;;;6.80;65.70;;;;;;775459;180;26439;-85
2023/11/22 16:33:39;;;;;;;28.90;16.33;;;6.80;69.80;;;;;;763050;183;26459;-85
2023/11/22 16:36:21;;;;;;;188.13;90.80;;;6.70;66.80;;;;;;780392;177;26454;-85
2023/11/22 16:44:31;;;;;;;33.80;15.87;;;6.70;63.20;;;;;;801056;175;26431;-86
2023/11/22 16:47:14;;;;;;;78.10;34.43;;;6.70;62.40;;;;;;803036;177;26442;-85
2023/11/22 16:49:48;;;;;;;13.27;7.77;;;6.70;62.90;;;;;;776643;176;26586;-83
2023/11/22 16:52:33;;;;;;;13.53;8.93;;;6.80;64.60;;;;;;767355;181;26550;-86
2023/11/22 16:55:06;;;;;;;62.13;28.67;;;6.90;65.70;;;;;;764037;187;26552;-84
2023/11/22 16:57:48;;;;;;;45.20;12.00;;;6.90;62.60;;;;;;778895;184;26540;-85
2023/11/22 17:00:22;;;;;;;16.87;10.10;;;6.90;64.40;;;;;;780958;180;26506;-87
2023/11/22 17:02:48;;;;;;;13.17;9.07;;;7.00;64.20;;;;;;774686;180;26486;-86
2023/11/22 17:05:18;;;;;;;41.83;22.93;;;6.90;63.00;;;;;;781556;182;26519;-86
2023/11/22 17:07:43;;;;;;;18.33;12.03;;;6.90;62.80;;;;;;781074;177;26566;-86
2023/11/22 17:10:12;;;;;;;27.87;15.37;;;6.90;66.10;;;;;;780666;184;26564;-86
2023/11/22 17:12:36;;;;;;;13.47;8.53;;;6.90;66.30;;;;;;771266;183;26627;-87
2023/11/22 17:15:04;;;;;;;16.63;11.37;;;7.00;65.30;;;;;;761969;187;26569;-87
2023/11/22 17:17:30;;;;;;;78.10;39.30;;;7.00;67.80;;;;;;765676;184;26522;-86
2023/11/22 17:19:56;;;;;;;185.07;91.83;;;6.90;65.00;;;;;;765661;187;26498;-87
2023/11/22 17:22:27;;;;;;;136.90;65.60;;;6.90;66.40;;;;;;766550;187;27183;-87